sensor_id;sensor_type;location;lat;lon;timestamp;pressure;altitude;pressure_sealevel;temperature;humidity
68859;BME280;55864;49.238;8.092;2022-11-20T00:01:09;99019.72;;;3.22;89.94
68859;BME280;55864;49.238;8.092;2022-11-20T00:03:10;99019.06;;;3.31;90.37
68859;BME280;55864;49.238;8.092;2022-11-20T00:05:10;99019.81;;;3.56;90.24
68859;BME280;55864;49.238;8.092;2022-11-20T00:07:11;99018.41;;;3.76;90.90
68859;BME280;55864;49.238;8.092;2022-11-20T00:09:11;99011.25;;;3.91;91.72
68859;BME280;55864;49.238;8.092;2022-11-20T00:11:15;99014.56;;;3.93;91.46
68859;BME280;55864;49.238;8.092;2022-11-20T00:13:16;99018.22;;;3.90;92.36
68859;BME280;55864;49.238;8.092;2022-11-20T00:15:17;99016.13;;;3.95;92.58
68859;BME280;55864;49.238;8.092;2022-11-20T00:17:17;99023.22;;;3.93;90.60
68859;BME280;55864;49.238;8.092;2022-11-20T00:19:18;99014.47;;;3.94;89.74
68859;BME280;55864;49.238;8.092;2022-11-20T00:21:20;99013.94;;;3.78;89.82
68859;BME280;55864;49.238;8.092;2022-11-20T00:23:21;99020.41;;;3.72;89.74
68859;BME280;55864;49.238;8.092;2022-11-20T00:25:21;99012.69;;;3.71;90.09
68859;BME280;55864;49.238;8.092;2022-11-20T00:27:23;99018.94;;;3.68;89.90
68859;BME280;55864;49.238;8.092;2022-11-20T00:29:24;99011.91;;;3.58;89.67
68859;BME280;55864;49.238;8.092;2022-11-20T00:31:25;99009.47;;;3.44;89.74
68859;BME280;55864;49.238;8.092;2022-11-20T00:33:25;99012.41;;;3.39;90.07
68859;BME280;55864;49.238;8.092;2022-11-20T00:35:26;99005.06;;;3.21;89.80
68859;BME280;55864;49.238;8.092;2022-11-20T00:37:26;99006.34;;;3.15;90.86
68859;BME280;55864;49.238;8.092;2022-11-20T00:39:27;99009.34;;;3.22;91.20
68859;BME280;55864;49.238;8.092;2022-11-20T00:41:28;98992.06;;;3.33;92.43
68859;BME280;55864;49.238;8.092;2022-11-20T00:43:30;98996.75;;;3.28;91.65
68859;BME280;55864;49.238;8.092;2022-11-20T00:45:31;99000.53;;;3.48;92.64
68859;BME280;55864;49.238;8.092;2022-11-20T00:47:31;98990.53;;;3.31;92.39
68859;BME280;55864;49.238;8.092;2022-11-20T00:49:32;98997.25;;;3.33;92.28
68859;BME280;55864;49.238;8.092;2022-11-20T00:51:32;98993.19;;;3.42;92.51
68859;BME280;55864;49.238;8.092;2022-11-20T00:53:33;98992.91;;;3.34;92.05
68859;BME280;55864;49.238;8.092;2022-11-20T00:55:34;98994.44;;;3.36;93.18
68859;BME280;55864;49.238;8.092;2022-11-20T00:57:34;98990.47;;;3.43;94.01
68859;BME280;55864;49.238;8.092;2022-11-20T00:59:36;98990.41;;;3.32;93.52
68859;BME280;55864;49.238;8.092;2022-11-20T01:01:37;98998.50;;;3.28;92.34
68859;BME280;55864;49.238;8.092;2022-11-20T01:03:40;99002.47;;;3.21;91.53
68859;BME280;55864;49.238;8.092;2022-11-20T01:05:41;98991.53;;;3.05;92.45
68859;BME280;55864;49.238;8.092;2022-11-20T01:07:41;98993.22;;;2.93;90.84
68859;BME280;55864;49.238;8.092;2022-11-20T01:09:42;98999.09;;;3.08;91.62
68859;BME280;55864;49.238;8.092;2022-11-20T01:11:43;98990.47;;;3.07;91.74
68859;BME280;55864;49.238;8.092;2022-11-20T01:13:45;98995.66;;;3.07;91.00
68859;BME280;55864;49.238;8.092;2022-11-20T01:15:47;98997.25;;;2.97;91.81
68859;BME280;55864;49.238;8.092;2022-11-20T01:17:48;98991.13;;;2.98;92.05
68859;BME280;55864;49.238;8.092;2022-11-20T01:19:49;98990.28;;;2.98;91.32
68859;BME280;55864;49.238;8.092;2022-11-20T01:21:51;98989.84;;;3.04;91.50
68859;BME280;55864;49.238;8.092;2022-11-20T01:23:55;98984.56;;;3.05;91.62
68859;BME280;55864;49.238;8.092;2022-11-20T01:25:56;98988.41;;;3.00;91.34
68859;BME280;55864;49.238;8.092;2022-11-20T01:27:57;98992.97;;;2.96;91.36
68859;BME280;55864;49.238;8.092;2022-11-20T01:29:57;98989.78;;;2.93;91.33
68859;BME280;55864;49.238;8.092;2022-11-20T01:31:59;98990.31;;;2.85;90.82
68859;BME280;55864;49.238;8.092;2022-11-20T01:34:01;99000.72;;;3.09;91.51
68859;BME280;55864;49.238;8.092;2022-11-20T01:36:03;98997.72;;;3.15;90.62
68859;BME280;55864;49.238;8.092;2022-11-20T01:38:04;98997.06;;;3.24;90.29
68859;BME280;55864;49.238;8.092;2022-11-20T01:40:06;99000.66;;;2.98;89.11
68859;BME280;55864;49.238;8.092;2022-11-20T01:42:07;98996.16;;;3.25;90.85
68859;BME280;55864;49.238;8.092;2022-11-20T01:44:11;99005.19;;;3.07;89.56
68859;BME280;55864;49.238;8.092;2022-11-20T01:46:14;98998.94;;;3.58;91.44
68859;BME280;55864;49.238;8.092;2022-11-20T01:48:17;98996.81;;;3.39;89.75
68859;BME280;55864;49.238;8.092;2022-11-20T01:50:21;99000.13;;;3.41;90.54
68859;BME280;55864;49.238;8.092;2022-11-20T01:52:26;99002.91;;;3.27;89.97
68859;BME280;55864;49.238;8.092;2022-11-20T01:54:31;99001.63;;;3.33;90.35
68859;BME280;55864;49.238;8.092;2022-11-20T01:56:38;99000.38;;;3.26;90.13
68859;BME280;55864;49.238;8.092;2022-11-20T01:58:42;99005.31;;;3.54;90.37
68859;BME280;55864;49.238;8.092;2022-11-20T02:00:45;99002.25;;;3.36;89.35
68859;BME280;55864;49.238;8.092;2022-11-20T02:02:49;98990.09;;;3.37;89.25
68859;BME280;55864;49.238;8.092;2022-11-20T02:04:54;98989.72;;;3.54;90.31
68859;BME280;55864;49.238;8.092;2022-11-20T02:06:59;98982.78;;;3.65;89.82
68859;BME280;55864;49.238;8.092;2022-11-20T02:09:00;98988.47;;;3.94;91.26
68859;BME280;55864;49.238;8.092;2022-11-20T02:11:00;98985.25;;;4.14;90.99
68859;BME280;55864;49.238;8.092;2022-11-20T02:13:01;98980.06;;;4.14;91.97
68859;BME280;55864;49.238;8.092;2022-11-20T02:15:03;98988.47;;;4.29;91.89
68859;BME280;55864;49.238;8.092;2022-11-20T02:17:04;98985.09;;;4.50;91.26
68859;BME280;55864;49.238;8.092;2022-11-20T02:19:09;98986.44;;;4.21;91.58
68859;BME280;55864;49.238;8.092;2022-11-20T02:21:20;98991.91;;;3.95;90.42
68859;BME280;55864;49.238;8.092;2022-11-20T02:23:26;98983.34;;;3.81;90.15
68859;BME280;55864;49.238;8.092;2022-11-20T02:25:30;98983.16;;;3.61;88.82
68859;BME280;55864;49.238;8.092;2022-11-20T02:27:33;98987.00;;;3.55;89.14
68859;BME280;55864;49.238;8.092;2022-11-20T02:29:37;98981.78;;;3.44;89.52
68859;BME280;55864;49.238;8.092;2022-11-20T02:31:41;98981.78;;;3.32;88.58
68859;BME280;55864;49.238;8.092;2022-11-20T02:33:42;98977.25;;;3.23;89.18
68859;BME280;55864;49.238;8.092;2022-11-20T02:35:45;98971.94;;;3.24;88.82
68859;BME280;55864;49.238;8.092;2022-11-20T02:37:48;98977.38;;;3.21;89.91
68859;BME280;55864;49.238;8.092;2022-11-20T02:39:51;98972.19;;;3.21;89.89
68859;BME280;55864;49.238;8.092;2022-11-20T02:41:54;98970.00;;;3.15;90.75
68859;BME280;55864;49.238;8.092;2022-11-20T02:43:55;98978.09;;;3.11;91.02
68859;BME280;55864;49.238;8.092;2022-11-20T02:45:56;98981.03;;;3.06;90.24
68859;BME280;55864;49.238;8.092;2022-11-20T02:47:56;98977.38;;;3.09;91.83
68859;BME280;55864;49.238;8.092;2022-11-20T02:49:57;98972.19;;;3.09;92.44
68859;BME280;55864;49.238;8.092;2022-11-20T02:51:58;98973.69;;;3.00;91.40
68859;BME280;55864;49.238;8.092;2022-11-20T02:53:59;98973.97;;;3.08;92.35
68859;BME280;55864;49.238;8.092;2022-11-20T02:56:00;98967.78;;;2.98;92.14
68859;BME280;55864;49.238;8.092;2022-11-20T02:58:01;98969.22;;;3.02;92.62
68859;BME280;55864;49.238;8.092;2022-11-20T03:00:03;98970.25;;;3.00;92.08
68859;BME280;55864;49.238;8.092;2022-11-20T03:02:04;98975.78;;;2.95;91.73
68859;BME280;55864;49.238;8.092;2022-11-20T03:04:05;98959.56;;;3.04;92.41
68859;BME280;55864;49.238;8.092;2022-11-20T03:06:06;98964.22;;;3.12;92.05
68859;BME280;55864;49.238;8.092;2022-11-20T03:08:07;98959.63;;;3.15;92.68
68859;BME280;55864;49.238;8.092;2022-11-20T03:10:08;98966.63;;;3.02;92.37
68859;BME280;55864;49.238;8.092;2022-11-20T03:12:08;98962.16;;;3.04;92.41
68859;BME280;55864;49.238;8.092;2022-11-20T03:14:10;98956.03;;;3.05;91.80
68859;BME280;55864;49.238;8.092;2022-11-20T03:16:13;98960.72;;;3.00;92.04
68859;BME280;55864;49.238;8.092;2022-11-20T03:18:13;98953.66;;;3.02;91.64
68859;BME280;55864;49.238;8.092;2022-11-20T03:20:14;98957.63;;;2.95;91.16
68859;BME280;55864;49.238;8.092;2022-11-20T03:22:15;98959.16;;;2.98;92.45
68859;BME280;55864;49.238;8.092;2022-11-20T03:24:15;98960.19;;;3.08;92.59
68859;BME280;55864;49.238;8.092;2022-11-20T03:26:18;98953.31;;;3.07;92.42
68859;BME280;55864;49.238;8.092;2022-11-20T03:28:18;98950.03;;;3.05;92.79
68859;BME280;55864;49.238;8.092;2022-11-20T03:30:20;98946.47;;;3.06;92.19
68859;BME280;55864;49.238;8.092;2022-11-20T03:32:21;98947.69;;;3.13;93.28
68859;BME280;55864;49.238;8.092;2022-11-20T03:34:22;98944.84;;;3.28;94.16
68859;BME280;55864;49.238;8.092;2022-11-20T03:36:22;98948.56;;;3.37;94.36
68859;BME280;55864;49.238;8.092;2022-11-20T03:38:23;98954.13;;;3.43;94.77
68859;BME280;55864;49.238;8.092;2022-11-20T03:40:24;98943.13;;;3.63;95.45
68859;BME280;55864;49.238;8.092;2022-11-20T03:42:24;98943.03;;;3.65;94.84
68859;BME280;55864;49.238;8.092;2022-11-20T03:44:25;98948.94;;;3.67;94.59
68859;BME280;55864;49.238;8.092;2022-11-20T03:46:27;98948.47;;;3.73;95.09
68859;BME280;55864;49.238;8.092;2022-11-20T03:48:28;98949.66;;;3.69;94.49
68859;BME280;55864;49.238;8.092;2022-11-20T03:50:28;98949.47;;;3.83;94.42
68859;BME280;55864;49.238;8.092;2022-11-20T03:52:29;98950.91;;;3.87;95.10
68859;BME280;55864;49.238;8.092;2022-11-20T03:54:30;98955.38;;;3.85;94.79
68859;BME280;55864;49.238;8.092;2022-11-20T03:56:32;98949.34;;;3.84;95.56
68859;BME280;55864;49.238;8.092;2022-11-20T03:58:33;98951.63;;;3.89;94.74
68859;BME280;55864;49.238;8.092;2022-11-20T04:00:34;98947.50;;;3.98;95.73
68859;BME280;55864;49.238;8.092;2022-11-20T04:02:35;98950.72;;;4.01;95.55
68859;BME280;55864;49.238;8.092;2022-11-20T04:04:36;98949.34;;;4.19;96.49
68859;BME280;55864;49.238;8.092;2022-11-20T04:06:37;98949.47;;;4.18;95.93
68859;BME280;55864;49.238;8.092;2022-11-20T04:08:38;98951.47;;;4.14;96.41
68859;BME280;55864;49.238;8.092;2022-11-20T04:10:41;98945.66;;;4.11;95.65
68859;BME280;55864;49.238;8.092;2022-11-20T04:12:42;98946.69;;;3.97;93.06
68859;BME280;55864;49.238;8.092;2022-11-20T04:14:42;98944.75;;;3.88;92.95
68859;BME280;55864;49.238;8.092;2022-11-20T04:16:43;98949.00;;;3.78;92.43
68859;BME280;55864;49.238;8.092;2022-11-20T04:18:45;98945.88;;;3.73;92.89
68859;BME280;55864;49.238;8.092;2022-11-20T04:20:45;98944.28;;;3.83;93.61
68859;BME280;55864;49.238;8.092;2022-11-20T04:22:46;98932.25;;;3.82;93.87
68859;BME280;55864;49.238;8.092;2022-11-20T04:24:46;98929.47;;;4.07;94.86
68859;BME280;55864;49.238;8.092;2022-11-20T04:26:47;98934.91;;;4.15;94.83
68859;BME280;55864;49.238;8.092;2022-11-20T04:28:47;98937.63;;;4.14;95.56
68859;BME280;55864;49.238;8.092;2022-11-20T04:30:48;98938.00;;;4.20;95.83
68859;BME280;55864;49.238;8.092;2022-11-20T04:32:48;98935.66;;;4.39;96.53
68859;BME280;55864;49.238;8.092;2022-11-20T04:34:50;98935.00;;;4.48;96.08
68859;BME280;55864;49.238;8.092;2022-11-20T04:36:51;98924.00;;;4.56;96.85
68859;BME280;55864;49.238;8.092;2022-11-20T04:38:52;98925.31;;;4.61;95.98
68859;BME280;55864;49.238;8.092;2022-11-20T04:40:56;98924.59;;;4.70;96.75
68859;BME280;55864;49.238;8.092;2022-11-20T04:42:56;98931.22;;;4.74;96.69
68859;BME280;55864;49.238;8.092;2022-11-20T04:44:57;98928.84;;;4.94;96.67
68859;BME280;55864;49.238;8.092;2022-11-20T04:46:57;98919.84;;;4.98;95.12
68859;BME280;55864;49.238;8.092;2022-11-20T04:48:58;98927.16;;;4.93;95.12
68859;BME280;55864;49.238;8.092;2022-11-20T04:51:04;98920.28;;;5.03;94.85
68859;BME280;55864;49.238;8.092;2022-11-20T04:53:04;98927.66;;;4.98;94.59
68859;BME280;55864;49.238;8.092;2022-11-20T04:55:06;98918.53;;;4.92;94.43
68859;BME280;55864;49.238;8.092;2022-11-20T04:57:06;98926.56;;;5.00;94.32
68859;BME280;55864;49.238;8.092;2022-11-20T04:59:07;98927.16;;;4.93;94.70
68859;BME280;55864;49.238;8.092;2022-11-20T05:01:10;98930.25;;;4.98;94.27
68859;BME280;55864;49.238;8.092;2022-11-20T05:03:10;98922.41;;;5.09;94.75
68859;BME280;55864;49.238;8.092;2022-11-20T05:05:11;98926.34;;;5.03;94.79
68859;BME280;55864;49.238;8.092;2022-11-20T05:07:13;98921.84;;;5.05;94.48
68859;BME280;55864;49.238;8.092;2022-11-20T05:09:13;98917.66;;;5.14;94.69
68859;BME280;55864;49.238;8.092;2022-11-20T05:11:16;98921.84;;;5.05;93.53
68859;BME280;55864;49.238;8.092;2022-11-20T05:13:17;98922.53;;;5.18;94.50
68859;BME280;55864;49.238;8.092;2022-11-20T05:15:17;98930.69;;;5.14;94.44
68859;BME280;55864;49.238;8.092;2022-11-20T05:17:18;98922.69;;;5.48;96.01
68859;BME280;55864;49.238;8.092;2022-11-20T05:19:18;98922.84;;;5.67;96.21
68859;BME280;55864;49.238;8.092;2022-11-20T05:21:19;98926.44;;;5.87;97.04
68859;BME280;55864;49.238;8.092;2022-11-20T05:23:21;98928.75;;;6.01;97.67
68859;BME280;55864;49.238;8.092;2022-11-20T05:25:22;98924.94;;;6.05;97.68
68859;BME280;55864;49.238;8.092;2022-11-20T05:27:22;98922.63;;;6.12;96.94
68859;BME280;55864;49.238;8.092;2022-11-20T05:29:23;98917.69;;;6.09;96.65
68859;BME280;55864;49.238;8.092;2022-11-20T05:33:24;98932.50;;;5.88;94.79
68859;BME280;55864;49.238;8.092;2022-11-20T05:35:25;98933.22;;;5.79;94.62
68859;BME280;55864;49.238;8.092;2022-11-20T05:37:25;98926.88;;;5.60;93.48
68859;BME280;55864;49.238;8.092;2022-11-20T05:39:27;98925.44;;;5.67;93.97
68859;BME280;55864;49.238;8.092;2022-11-20T05:41:28;98924.19;;;5.51;93.44
68859;BME280;55864;49.238;8.092;2022-11-20T05:43:31;98924.19;;;5.51;94.26
68859;BME280;55864;49.238;8.092;2022-11-20T05:45:32;98925.75;;;5.42;94.08
68859;BME280;55864;49.238;8.092;2022-11-20T05:47:33;98921.25;;;5.44;94.49
68859;BME280;55864;49.238;8.092;2022-11-20T05:49:34;98929.16;;;5.54;94.99
68859;BME280;55864;49.238;8.092;2022-11-20T05:51:35;98924.78;;;5.54;95.97
68859;BME280;55864;49.238;8.092;2022-11-20T05:53:35;98925.84;;;5.52;95.08
68859;BME280;55864;49.238;8.092;2022-11-20T05:55:37;98928.47;;;5.52;95.02
68859;BME280;55864;49.238;8.092;2022-11-20T05:57:38;98923.28;;;5.41;94.55
68859;BME280;55864;49.238;8.092;2022-11-20T05:59:38;98921.31;;;5.33;94.78
68859;BME280;55864;49.238;8.092;2022-11-20T06:01:39;98923.88;;;5.44;95.31
68859;BME280;55864;49.238;8.092;2022-11-20T06:03:40;98927.78;;;5.39;95.26
68859;BME280;55864;49.238;8.092;2022-11-20T06:05:41;98923.66;;;5.36;94.92
68859;BME280;55864;49.238;8.092;2022-11-20T06:07:41;98914.66;;;5.40;96.04
68859;BME280;55864;49.238;8.092;2022-11-20T06:09:42;98917.25;;;5.40;95.95
68859;BME280;55864;49.238;8.092;2022-11-20T06:11:43;98915.00;;;5.36;96.42
68859;BME280;55864;49.238;8.092;2022-11-20T06:13:45;98923.78;;;5.35;96.16
68859;BME280;55864;49.238;8.092;2022-11-20T06:15:48;98919.31;;;5.26;95.87
68859;BME280;55864;49.238;8.092;2022-11-20T06:17:51;98925.94;;;5.30;96.58
68859;BME280;55864;49.238;8.092;2022-11-20T06:19:52;98914.19;;;5.35;95.61
68859;BME280;55864;49.238;8.092;2022-11-20T06:21:52;98918.78;;;5.43;96.22
68859;BME280;55864;49.238;8.092;2022-11-20T06:23:53;98931.47;;;5.36;96.03
68859;BME280;55864;49.238;8.092;2022-11-20T06:25:53;98920.69;;;5.41;95.93
68859;BME280;55864;49.238;8.092;2022-11-20T06:27:55;98918.19;;;5.39;95.93
68859;BME280;55864;49.238;8.092;2022-11-20T06:29:56;98918.75;;;5.54;96.12
68859;BME280;55864;49.238;8.092;2022-11-20T06:31:56;98916.09;;;5.65;97.29
68859;BME280;55864;49.238;8.092;2022-11-20T06:33:57;98920.06;;;5.48;95.33
68859;BME280;55864;49.238;8.092;2022-11-20T06:35:57;98917.38;;;5.39;95.39
68859;BME280;55864;49.238;8.092;2022-11-20T06:37:58;98921.13;;;5.46;95.34
68859;BME280;55864;49.238;8.092;2022-11-20T06:39:59;98921.84;;;5.48;96.34
68859;BME280;55864;49.238;8.092;2022-11-20T06:41:59;98923.75;;;5.46;95.41
68859;BME280;55864;49.238;8.092;2022-11-20T06:44:03;98930.41;;;5.39;95.51
68859;BME280;55864;49.238;8.092;2022-11-20T06:46:04;98933.13;;;5.37;96.34
68859;BME280;55864;49.238;8.092;2022-11-20T06:48:05;98934.03;;;5.47;96.32
68859;BME280;55864;49.238;8.092;2022-11-20T06:50:06;98928.78;;;5.58;97.05
68859;BME280;55864;49.238;8.092;2022-11-20T06:52:06;98942.81;;;5.46;95.74
68859;BME280;55864;49.238;8.092;2022-11-20T06:54:07;98944.44;;;5.47;96.25
68859;BME280;55864;49.238;8.092;2022-11-20T06:56:07;98939.19;;;5.58;96.82
68859;BME280;55864;49.238;8.092;2022-11-20T06:58:08;98937.38;;;5.70;97.09
68859;BME280;55864;49.238;8.092;2022-11-20T07:00:11;98942.66;;;5.91;98.34
68859;BME280;55864;49.238;8.092;2022-11-20T07:02:12;98934.16;;;5.78;97.35
68859;BME280;55864;49.238;8.092;2022-11-20T07:04:13;98936.72;;;5.57;96.06
68859;BME280;55864;49.238;8.092;2022-11-20T07:06:13;98940.47;;;5.64;96.60
68859;BME280;55864;49.238;8.092;2022-11-20T07:08:13;98938.13;;;5.61;96.74
68859;BME280;55864;49.238;8.092;2022-11-20T07:10:14;98937.22;;;5.51;95.91
68859;BME280;55864;49.238;8.092;2022-11-20T07:12:15;98944.13;;;5.41;95.48
68859;BME280;55864;49.238;8.092;2022-11-20T07:14:15;98948.84;;;5.47;96.24
68859;BME280;55864;49.238;8.092;2022-11-20T07:16:17;98940.28;;;5.56;97.14
68859;BME280;55864;49.238;8.092;2022-11-20T07:18:18;98947.34;;;5.33;95.99
68859;BME280;55864;49.238;8.092;2022-11-20T07:20:18;98947.63;;;5.62;98.65
68859;BME280;55864;49.238;8.092;2022-11-20T07:22:19;98956.72;;;5.67;97.54
68859;BME280;55864;49.238;8.092;2022-11-20T07:24:19;98961.88;;;5.47;96.49
68859;BME280;55864;49.238;8.092;2022-11-20T07:26:20;98966.56;;;5.53;96.42
68859;BME280;55864;49.238;8.092;2022-11-20T07:28:20;98956.31;;;5.40;96.16
68859;BME280;55864;49.238;8.092;2022-11-20T07:30:21;98960.69;;;5.40;95.84
68859;BME280;55864;49.238;8.092;2022-11-20T07:32:23;98974.19;;;5.34;95.87
68859;BME280;55864;49.238;8.092;2022-11-20T07:34:23;98974.78;;;5.37;96.96
68859;BME280;55864;49.238;8.092;2022-11-20T07:36:24;98981.28;;;5.32;96.25
68859;BME280;55864;49.238;8.092;2022-11-20T07:38:24;98962.03;;;5.23;96.18
68859;BME280;55864;49.238;8.092;2022-11-20T07:40:25;98963.66;;;5.24;95.95
68859;BME280;55864;49.238;8.092;2022-11-20T07:42:25;98953.75;;;5.29;95.97
68859;BME280;55864;49.238;8.092;2022-11-20T07:44:26;98955.47;;;5.40;96.29
68859;BME280;55864;49.238;8.092;2022-11-20T07:46:26;98959.59;;;5.53;97.06
68859;BME280;55864;49.238;8.092;2022-11-20T07:48:28;98955.69;;;5.80;97.96
68859;BME280;55864;49.238;8.092;2022-11-20T07:50:28;98956.91;;;5.75;97.58
68859;BME280;55864;49.238;8.092;2022-11-20T07:52:29;98962.06;;;5.55;96.82
68859;BME280;55864;49.238;8.092;2022-11-20T07:54:29;98949.88;;;5.55;96.74
68859;BME280;55864;49.238;8.092;2022-11-20T07:56:30;98964.09;;;5.51;97.44
68859;BME280;55864;49.238;8.092;2022-11-20T07:58:31;98969.13;;;5.64;97.56
68859;BME280;55864;49.238;8.092;2022-11-20T08:00:31;98964.44;;;5.58;96.90
68859;BME280;55864;49.238;8.092;2022-11-20T08:02:32;98965.06;;;5.50;96.61
68859;BME280;55864;49.238;8.092;2022-11-20T08:04:34;98966.06;;;5.59;96.64
68859;BME280;55864;49.238;8.092;2022-11-20T08:06:34;98962.53;;;5.60;97.30
68859;BME280;55864;49.238;8.092;2022-11-20T08:08:35;98974.47;;;5.62;97.79
68859;BME280;55864;49.238;8.092;2022-11-20T08:10:36;98973.41;;;5.65;97.18
68859;BME280;55864;49.238;8.092;2022-11-20T08:12:43;98968.78;;;5.68;98.00
68859;BME280;55864;49.238;8.092;2022-11-20T08:14:44;98966.97;;;5.80;97.67
68859;BME280;55864;49.238;8.092;2022-11-20T08:16:46;98975.25;;;5.85;97.92
68859;BME280;55864;49.238;8.092;2022-11-20T08:18:46;98975.97;;;5.87;97.71
68859;BME280;55864;49.238;8.092;2022-11-20T08:20:48;98974.78;;;5.80;96.95
68859;BME280;55864;49.238;8.092;2022-11-20T08:22:49;98972.66;;;5.74;97.27
68859;BME280;55864;49.238;8.092;2022-11-20T08:24:49;98979.66;;;5.85;97.54
68859;BME280;55864;49.238;8.092;2022-11-20T08:26:50;98975.38;;;5.84;96.91
68859;BME280;55864;49.238;8.092;2022-11-20T08:28:53;98982.38;;;5.83;97.26
68859;BME280;55864;49.238;8.092;2022-11-20T08:30:58;98985.19;;;5.91;97.80
68859;BME280;55864;49.238;8.092;2022-11-20T08:33:01;98986.25;;;5.89;96.92
68859;BME280;55864;49.238;8.092;2022-11-20T08:35:02;98992.16;;;6.22;98.99
68859;BME280;55864;49.238;8.092;2022-11-20T08:37:03;98991.53;;;6.09;97.84
68859;BME280;55864;49.238;8.092;2022-11-20T08:39:04;98991.97;;;6.14;97.46
68859;BME280;55864;49.238;8.092;2022-11-20T08:41:05;98994.63;;;6.03;95.76
68859;BME280;55864;49.238;8.092;2022-11-20T08:43:06;99003.22;;;6.15;96.50
68859;BME280;55864;49.238;8.092;2022-11-20T08:45:07;99005.44;;;6.19;96.62
68859;BME280;55864;49.238;8.092;2022-11-20T08:47:07;99004.00;;;6.26;96.56
68859;BME280;55864;49.238;8.092;2022-11-20T08:49:10;99007.63;;;6.35;96.58
68859;BME280;55864;49.238;8.092;2022-11-20T08:51:11;99008.06;;;6.40;96.36
68859;BME280;55864;49.238;8.092;2022-11-20T08:53:13;99005.44;;;6.40;96.38
68859;BME280;55864;49.238;8.092;2022-11-20T08:55:14;99000.88;;;6.32;94.54
68859;BME280;55864;49.238;8.092;2022-11-20T08:57:14;99006.16;;;6.42;94.84
68859;BME280;55864;49.238;8.092;2022-11-20T08:59:15;98993.69;;;6.45;95.69
68859;BME280;55864;49.238;8.092;2022-11-20T09:01:15;98997.63;;;6.19;93.55
68859;BME280;55864;49.238;8.092;2022-11-20T09:03:16;98998.81;;;6.15;94.29
68859;BME280;55864;49.238;8.092;2022-11-20T09:05:16;99006.41;;;6.18;94.09
68859;BME280;55864;49.238;8.092;2022-11-20T09:07:17;99005.13;;;6.13;93.24
68859;BME280;55864;49.238;8.092;2022-11-20T09:09:19;99005.13;;;6.13;93.65
68859;BME280;55864;49.238;8.092;2022-11-20T09:11:20;99007.97;;;6.41;94.98
68859;BME280;55864;49.238;8.092;2022-11-20T09:13:21;99004.69;;;6.28;93.46
68859;BME280;55864;49.238;8.092;2022-11-20T09:15:22;99000.13;;;6.41;95.55
68859;BME280;55864;49.238;8.092;2022-11-20T09:17:23;99002.59;;;6.43;94.79
68859;BME280;55864;49.238;8.092;2022-11-20T09:19:23;99007.25;;;6.39;94.09
68859;BME280;55864;49.238;8.092;2022-11-20T09:21:24;99014.44;;;6.47;94.93
68859;BME280;55864;49.238;8.092;2022-11-20T09:23:24;99012.78;;;6.46;93.90
68859;BME280;55864;49.238;8.092;2022-11-20T09:25:27;99012.59;;;6.58;94.97
68859;BME280;55864;49.238;8.092;2022-11-20T09:27:27;99019.97;;;6.53;94.82
68859;BME280;55864;49.238;8.092;2022-11-20T09:29:28;99025.03;;;6.55;94.77
68859;BME280;55864;49.238;8.092;2022-11-20T09:31:28;99032.56;;;6.48;93.81
68859;BME280;55864;49.238;8.092;2022-11-20T09:33:29;99027.50;;;6.47;94.26
68859;BME280;55864;49.238;8.092;2022-11-20T09:35:29;99027.34;;;6.48;95.29
68859;BME280;55864;49.238;8.092;2022-11-20T09:37:29;99019.47;;;6.59;95.46
68859;BME280;55864;49.238;8.092;2022-11-20T09:39:30;99023.41;;;6.54;95.03
68859;BME280;55864;49.238;8.092;2022-11-20T09:42:09;99011.44;;;6.51;94.06
68859;BME280;55864;49.238;8.092;2022-11-20T09:44:23;99029.69;;;6.51;94.31
68859;BME280;55864;49.238;8.092;2022-11-20T09:46:29;99033.22;;;6.61;94.94
68859;BME280;55864;49.238;8.092;2022-11-20T09:48:50;99034.19;;;6.70;95.23
68859;BME280;55864;49.238;8.092;2022-11-20T09:50:57;99034.66;;;6.75;95.03
68859;BME280;55864;49.238;8.092;2022-11-20T09:53:13;99027.72;;;6.64;93.53
68859;BME280;55864;49.238;8.092;2022-11-20T09:55:16;99036.09;;;6.58;93.31
68859;BME280;55864;49.238;8.092;2022-11-20T09:57:21;99034.19;;;6.70;94.74
68859;BME280;55864;49.238;8.092;2022-11-20T09:59:33;99033.84;;;6.75;94.78
68859;BME280;55864;49.238;8.092;2022-11-20T10:01:36;99033.06;;;6.63;93.73
68859;BME280;55864;49.238;8.092;2022-11-20T10:03:44;99038.22;;;6.74;94.84
68859;BME280;55864;49.238;8.092;2022-11-20T10:05:48;99036.06;;;6.79;94.82
68859;BME280;55864;49.238;8.092;2022-11-20T10:08:07;99029.63;;;6.62;92.66
68859;BME280;55864;49.238;8.092;2022-11-20T10:10:15;99032.34;;;6.82;94.46
68859;BME280;55864;49.238;8.092;2022-11-20T10:12:22;99031.72;;;6.89;94.16
68859;BME280;55864;49.238;8.092;2022-11-20T10:14:32;99037.69;;;7.01;94.22
68859;BME280;55864;49.238;8.092;2022-11-20T10:16:41;99028.66;;;7.14;93.53
68859;BME280;55864;49.238;8.092;2022-11-20T10:19:07;99026.91;;;7.15;92.61
68859;BME280;55864;49.238;8.092;2022-11-20T10:21:23;99021.19;;;7.30;93.75
68859;BME280;55864;49.238;8.092;2022-11-20T10:25:57;99028.34;;;7.28;91.98
68859;BME280;55864;49.238;8.092;2022-11-20T10:28:23;99023.75;;;7.21;89.57
68859;BME280;55864;49.238;8.092;2022-11-20T10:30:25;99023.09;;;7.28;90.81
68859;BME280;55864;49.238;8.092;2022-11-20T10:32:34;99017.84;;;7.19;90.74
68859;BME280;55864;49.238;8.092;2022-11-20T10:34:44;99018.53;;;7.21;91.91
68859;BME280;55864;49.238;8.092;2022-11-20T10:36:51;99018.69;;;7.29;91.21
68859;BME280;55864;49.238;8.092;2022-11-20T10:38:56;99020.56;;;7.47;92.44
68859;BME280;55864;49.238;8.092;2022-11-20T10:41:01;99005.44;;;7.51;92.19
68859;BME280;55864;49.238;8.092;2022-11-20T10:43:08;99000.31;;;7.49;91.05
68859;BME280;55864;49.238;8.092;2022-11-20T10:45:16;99010.09;;;7.47;90.19
68859;BME280;55864;49.238;8.092;2022-11-20T10:47:20;99005.16;;;7.54;91.52
68859;BME280;55864;49.238;8.092;2022-11-20T10:49:21;99014.28;;;7.29;89.68
68859;BME280;55864;49.238;8.092;2022-11-20T10:51:36;99009.28;;;7.07;89.07
68859;BME280;55864;49.238;8.092;2022-11-20T10:53:47;99001.09;;;7.31;90.98
68859;BME280;55864;49.238;8.092;2022-11-20T10:55:56;98994.38;;;7.28;89.79
68859;BME280;55864;49.238;8.092;2022-11-20T10:58:03;98998.78;;;7.37;91.62
68859;BME280;55864;49.238;8.092;2022-11-20T11:00:06;98991.81;;;7.47;91.19